Time;durP1;ratioP1;P1;durP2;ratioP2;P2;SDS_P1;SDS_P2;PMS_P1;PMS_P2;Temp;Humidity;BMP_temperature;BMP_pressure;BME280_temperature;BME280_humidity;BME280_pressure;Samples;Min_cycle;Max_cycle;Signal;HPM_P1;HPM_P2
2023/04/13 00:01:00;;;;;;;3.05;1.70;;;;;;;;;;12981648;22;20015;-82
2023/04/13 00:06:01;;;;;;;1.93;1.50;;;;;;;;;;12989647;22;20083;-77
2023/04/13 00:11:03;;;;;;;4.53;1.90;;;;;;;;;;12971896;22;20003;-82
2023/04/13 00:16:08;;;;;;;3.42;1.95;;;;;;;;;;13018242;22;20035;-79
2023/04/13 00:21:09;;;;;;;2.72;2.00;;;;;;;;;;12998206;22;20034;-80
2023/04/13 00:26:11;;;;;;;2.10;1.98;;;;;;;;;;12931926;22;20385;-79
2023/04/13 00:31:13;;;;;;;3.63;2.20;;;;;;;;;;12990377;22;20008;-85
2023/04/13 00:36:14;;;;;;;3.05;2.65;;;;;;;;;;13011977;22;20035;-79
2023/04/13 00:41:15;;;;;;;2.88;2.50;;;;;;;;;;13004340;22;20340;-78
2023/04/13 00:46:16;;;;;;;3.25;2.10;;;;;;;;;;12948275;22;20392;-81
2023/04/13 00:51:18;;;;;;;4.97;2.10;;;;;;;;;;12971584;22;20022;-78
2023/04/13 00:56:21;;;;;;;1.50;1.40;;;;;;;;;;12974040;22;20027;-78
2023/04/13 01:01:22;;;;;;;1.70;1.00;;;;;;;;;;12974929;22;20024;-78
2023/04/13 01:06:27;;;;;;;1.40;1.00;;;;;;;;;;12946222;22;20011;-80
2023/04/13 01:11:35;;;;;;;1.75;1.08;;;;;;;;;;12943383;22;20266;-79
2023/04/13 01:16:41;;;;;;;1.67;1.10;;;;;;;;;;12944524;22;20054;-79
2023/04/13 01:21:42;;;;;;;1.25;0.95;;;;;;;;;;12942728;22;20400;-79
2023/04/13 01:26:44;;;;;;;1.25;1.13;;;;;;;;;;12944871;22;20011;-78
2023/04/13 01:31:45;;;;;;;4.18;1.40;;;;;;;;;;12971836;22;20011;-77
2023/04/13 01:36:49;;;;;;;2.17;1.30;;;;;;;;;;12968628;22;20597;-78
2023/04/13 01:41:51;;;;;;;1.23;1.00;;;;;;;;;;12941958;22;20802;-78
2023/04/13 01:46:55;;;;;;;1.10;1.00;;;;;;;;;;12969121;22;20034;-76
2023/04/13 01:52:21;;;;;;;1.90;1.10;;;;;;;;;;12985603;22;19992;-77
2023/04/13 01:57:22;;;;;;;1.80;1.38;;;;;;;;;;13009849;22;20003;-82
2023/04/13 02:02:26;;;;;;;1.55;1.30;;;;;;;;;;13042191;22;20006;-80
2023/04/13 02:07:27;;;;;;;2.33;1.60;;;;;;;;;;13015684;22;20015;-79
2023/04/13 02:12:30;;;;;;;2.35;1.63;;;;;;;;;;13010486;22;20504;-79
2023/04/13 02:17:32;;;;;;;2.90;1.63;;;;;;;;;;12982119;22;20121;-78
2023/04/13 02:22:32;;;;;;;5.80;3.00;;;;;;;;;;12953147;22;20328;-79
2023/04/13 02:27:34;;;;;;;8.57;3.80;;;;;;;;;;12949801;22;20015;-77
2023/04/13 02:32:36;;;;;;;1.63;1.40;;;;;;;;;;12973259;22;20285;-76
2023/04/13 02:37:41;;;;;;;1.90;1.30;;;;;;;;;;12941546;22;20377;-77
2023/04/13 02:42:45;;;;;;;2.75;1.20;;;;;;;;;;12943184;22;20016;-77
2023/04/13 02:47:46;;;;;;;1.50;1.40;;;;;;;;;;12946186;22;20016;-79
2023/04/13 02:52:49;;;;;;;3.25;1.40;;;;;;;;;;12973215;22;20453;-79
2023/04/13 02:57:50;;;;;;;1.45;1.20;;;;;;;;;;12986659;22;20027;-78
2023/04/13 03:02:51;;;;;;;1.50;1.05;;;;;;;;;;12959109;22;20051;-78
2023/04/13 03:07:54;;;;;;;2.08;1.20;;;;;;;;;;12941889;22;20020;-78
2023/04/13 03:12:55;;;;;;;1.30;1.20;;;;;;;;;;12968130;22;20107;-79
2023/04/13 03:17:58;;;;;;;2.92;1.70;;;;;;;;;;12968539;22;20095;-79
2023/04/13 03:23:00;;;;;;;5.25;1.48;;;;;;;;;;12941144;22;20840;-76
2023/04/13 03:28:05;;;;;;;1.60;1.50;;;;;;;;;;12941515;22;20011;-79
2023/04/13 03:33:10;;;;;;;3.60;1.55;;;;;;;;;;12916818;22;20022;-78
2023/04/13 03:38:12;;;;;;;2.33;1.52;;;;;;;;;;12936889;22;20708;-78
2023/04/13 03:43:17;;;;;;;2.22;1.60;;;;;;;;;;12939135;22;20015;-77
2023/04/13 03:48:23;;;;;;;1.92;1.48;;;;;;;;;;12913905;22;20085;-78
2023/04/13 03:53:25;;;;;;;2.10;1.60;;;;;;;;;;12963779;22;20094;-75
2023/04/13 03:58:28;;;;;;;1.10;1.00;;;;;;;;;;12914175;22;20040;-77
2023/04/13 04:03:29;;;;;;;2.85;1.55;;;;;;;;;;12966179;22;20113;-78
2023/04/13 04:08:39;;;;;;;4.55;2.47;;;;;;;;;;12892482;22;20007;-78
2023/04/13 04:13:48;;;;;;;2.45;1.77;;;;;;;;;;12939127;22;20027;-77
2023/04/13 04:18:50;;;;;;;2.38;1.52;;;;;;;;;;12941571;22;20110;-77
2023/04/13 04:23:53;;;;;;;2.65;1.88;;;;;;;;;;12913699;22;20022;-76
2023/04/13 04:29:00;;;;;;;2.42;1.50;;;;;;;;;;12976497;22;20516;-74
2023/04/13 04:34:01;;;;;;;2.60;1.48;;;;;;;;;;12975998;22;20016;-76
2023/04/13 04:39:07;;;;;;;2.78;1.48;;;;;;;;;;12971997;22;20016;-77
2023/04/13 04:44:15;;;;;;;2.42;1.77;;;;;;;;;;12939654;22;20062;-80
2023/04/13 04:49:22;;;;;;;1.60;1.50;;;;;;;;;;12938160;22;20081;-80
2023/04/13 04:54:25;;;;;;;2.20;1.60;;;;;;;;;;12917339;22;20016;-77
2023/04/13 04:59:25;;;;;;;2.00;1.80;;;;;;;;;;12969961;22;20594;-77
2023/04/13 05:04:37;;;;;;;2.15;1.63;;;;;;;;;;12943563;22;20116;-77
2023/04/13 05:09:38;;;;;;;3.13;1.83;;;;;;;;;;12917227;22;20020;-77
2023/04/13 05:14:40;;;;;;;1.92;1.50;;;;;;;;;;12916446;22;20111;-77
2023/04/13 05:19:43;;;;;;;2.03;1.53;;;;;;;;;;12945659;22;20034;-78
2023/04/13 05:24:49;;;;;;;2.95;1.30;;;;;;;;;;12946767;22;20016;-76
2023/04/13 05:29:51;;;;;;;1.98;1.10;;;;;;;;;;12942782;22;20500;-78
2023/04/13 05:34:58;;;;;;;2.67;1.30;;;;;;;;;;12939656;22;20523;-77
2023/04/13 05:40:01;;;;;;;1.88;1.40;;;;;;;;;;12914773;22;20026;-77
2023/04/13 05:45:08;;;;;;;3.30;1.27;;;;;;;;;;12966662;22;20462;-78
2023/04/13 05:50:12;;;;;;;3.50;1.20;;;;;;;;;;12939567;22;20016;-78
2023/04/13 05:55:15;;;;;;;1.85;1.45;;;;;;;;;;12939757;22;20038;-75
2023/04/13 06:00:21;;;;;;;4.10;1.13;;;;;;;;;;12939656;22;20427;-77
2023/04/13 06:05:34;;;;;;;3.35;1.52;;;;;;;;;;12944704;22;20086;-84
2023/04/13 06:10:35;;;;;;;2.53;1.02;;;;;;;;;;12915611;22;20023;-77
2023/04/13 06:15:37;;;;;;;3.28;1.40;;;;;;;;;;12965843;22;20019;-78
2023/04/13 06:20:38;;;;;;;3.13;1.13;;;;;;;;;;12939122;22;20353;-77
2023/04/13 06:25:40;;;;;;;2.97;1.30;;;;;;;;;;12966872;22;20095;-79
2023/04/13 06:30:44;;;;;;;2.78;1.23;;;;;;;;;;12941710;22;20023;-81
2023/04/13 06:35:48;;;;;;;1.15;1.05;;;;;;;;;;12948851;22;20098;-86
2023/04/13 06:40:50;;;;;;;1.70;1.38;;;;;;;;;;13026652;22;20014;-86
2023/04/13 06:45:56;;;;;;;9.02;1.40;;;;;;;;;;13007696;22;20122;-82
2023/04/13 06:51:00;;;;;;;2.67;1.50;;;;;;;;;;12978415;22;20020;-86
2023/04/13 06:56:03;;;;;;;1.55;0.90;;;;;;;;;;12961112;22;20015;-85
2023/04/13 07:01:07;;;;;;;2.95;1.10;;;;;;;;;;12980202;22;20024;-84
2023/04/13 07:11:35;;;;;;;2.08;0.95;;;;;;;;;;12986145;22;20012;-84
2023/04/13 07:16:45;;;;;;;2.30;1.00;;;;;;;;;;12913340;23;20027;-83
2023/04/13 07:22:03;;;;;;;2.85;1.27;;;;;;;;;;12943893;22;20020;-80
2023/04/13 07:27:06;;;;;;;3.53;1.30;;;;;;;;;;12945473;22;20107;-78
2023/04/13 07:32:09;;;;;;;3.83;1.20;;;;;;;;;;12956709;22;20058;-80
2023/04/13 07:37:12;;;;;;;2.03;1.42;;;;;;;;;;12967364;22;20777;-79
2023/04/13 07:42:15;;;;;;;2.25;1.17;;;;;;;;;;12966701;22;20074;-82
2023/04/13 07:47:26;;;;;;;2.13;1.20;;;;;;;;;;13027333;22;20004;-80
2023/04/13 07:52:42;;;;;;;2.33;1.10;;;;;;;;;;13008238;22;20022;-81
2023/04/13 07:57:44;;;;;;;2.78;0.90;;;;;;;;;;12955407;22;20023;-82
2023/04/13 08:02:46;;;;;;;2.15;1.00;;;;;;;;;;12971460;22;20020;-82
2023/04/13 08:08:07;;;;;;;1.55;0.90;;;;;;;;;;12938345;22;20016;-81
2023/04/13 08:13:10;;;;;;;2.88;1.10;;;;;;;;;;12921211;22;20309;-82
2023/04/13 08:18:16;;;;;;;2.47;0.90;;;;;;;;;;12931681;23;20023;-86
2023/04/13 08:23:17;;;;;;;1.83;0.82;;;;;;;;;;12944529;22;20080;-81
2023/04/13 08:28:27;;;;;;;2.15;0.98;;;;;;;;;;12930082;23;20011;-83
2023/04/13 08:33:30;;;;;;;1.52;1.00;;;;;;;;;;12932925;22;20016;-81
2023/04/13 08:38:32;;;;;;;4.70;1.15;;;;;;;;;;12939356;23;20032;-83
2023/04/13 08:43:37;;;;;;;2.78;1.00;;;;;;;;;;12966183;22;20004;-85
2023/04/13 08:48:42;;;;;;;3.33;1.25;;;;;;;;;;12981280;22;20030;-84
2023/04/13 08:53:43;;;;;;;2.33;1.17;;;;;;;;;;12979260;22;20016;-79
2023/04/13 08:58:46;;;;;;;2.83;1.10;;;;;;;;;;12946738;23;20028;-79
2023/04/13 09:03:51;;;;;;;2.33;1.25;;;;;;;;;;12932454;23;20012;-81
2023/04/13 09:08:55;;;;;;;3.35;1.17;;;;;;;;;;12933925;22;20012;-79
2023/04/13 09:13:56;;;;;;;3.63;1.53;;;;;;;;;;12936024;23;20030;-79
2023/04/13 09:19:00;;;;;;;3.20;1.27;;;;;;;;;;12929311;23;20024;-79
2023/04/13 09:24:03;;;;;;;;;;;;;;;;;;12931695;23;20040;-79
2023/04/13 09:29:08;;;;;;;4.28;1.30;;;;;;;;;;12956857;22;19899;-82
2023/04/13 09:34:12;;;;;;;5.88;1.10;;;;;;;;;;12979105;22;20019;-79
2023/04/13 09:39:52;;;;;;;3.13;1.27;;;;;;;;;;12976712;22;20008;-82
2023/04/13 09:45:29;;;;;;;2.75;1.15;;;;;;;;;;12982023;22;20004;-79
2023/04/13 09:50:35;;;;;;;3.10;1.30;;;;;;;;;;12979519;22;20047;-82
2023/04/13 09:55:37;;;;;;;2.83;1.48;;;;;;;;;;12959884;22;20016;-80
2023/04/13 10:00:38;;;;;;;2.88;1.27;;;;;;;;;;12924814;23;20508;-78
2023/04/13 10:05:47;;;;;;;9.65;1.80;;;;;;;;;;12972503;22;20004;-83
2023/04/13 10:10:51;;;;;;;4.28;1.40;;;;;;;;;;12980977;22;20019;-80
2023/04/13 10:16:26;;;;;;;4.18;1.42;;;;;;;;;;12952302;23;20035;-81
2023/04/13 10:21:34;;;;;;;6.05;1.95;;;;;;;;;;12901500;23;20020;-81
2023/04/13 10:26:36;;;;;;;2.78;1.20;;;;;;;;;;12922958;23;20107;-80
2023/04/13 10:31:37;;;;;;;4.32;1.25;;;;;;;;;;12932673;22;20115;-78
2023/04/13 10:36:43;;;;;;;2.63;1.73;;;;;;;;;;12918673;22;20097;-79
2023/04/13 10:41:43;;;;;;;4.80;1.42;;;;;;;;;;12915022;22;20023;-80
2023/04/13 10:46:53;;;;;;;2.50;1.20;;;;;;;;;;12914841;22;20015;-79
2023/04/13 10:51:55;;;;;;;4.60;1.73;;;;;;;;;;12892668;23;20016;-80
2023/04/13 10:56:58;;;;;;;3.15;1.20;;;;;;;;;;12946495;22;20151;-83
2023/04/13 11:01:59;;;;;;;2.92;1.48;;;;;;;;;;12939046;22;20016;-84
2023/04/13 11:07:01;;;;;;;5.38;1.38;;;;;;;;;;12917701;22;20036;-81
2023/04/13 11:12:02;;;;;;;2.63;1.20;;;;;;;;;;12912333;23;20110;-84
2023/04/13 11:17:03;;;;;;;4.18;1.55;;;;;;;;;;12919192;23;20031;-82
2023/04/13 11:22:04;;;;;;;2.13;1.40;;;;;;;;;;12915529;22;20074;-82
2023/04/13 11:27:19;;;;;;;3.22;1.20;;;;;;;;;;12910880;22;20104;-81
2023/04/13 11:32:24;;;;;;;4.25;1.33;;;;;;;;;;12904749;23;20441;-80
2023/04/13 11:37:27;;;;;;;4.47;1.90;;;;;;;;;;12907937;22;20016;-78
2023/04/13 11:42:30;;;;;;;5.03;1.50;;;;;;;;;;12909292;23;20020;-81
2023/04/13 11:47:31;;;;;;;2.95;1.33;;;;;;;;;;12902056;22;20554;-80
2023/04/13 11:52:33;;;;;;;3.65;1.20;;;;;;;;;;12909283;22;20020;-81
2023/04/13 11:57:34;;;;;;;3.45;1.40;;;;;;;;;;12917832;23;20413;-81
2023/04/13 12:02:39;;;;;;;2.63;0.90;;;;;;;;;;12953859;22;20024;-80
2023/04/13 12:08:03;;;;;;;2.65;0.98;;;;;;;;;;12951856;22;20042;-80
2023/04/13 12:13:09;;;;;;;2.33;1.05;;;;;;;;;;12954367;23;20043;-81
2023/04/13 12:18:14;;;;;;;3.85;1.27;;;;;;;;;;12932281;22;20031;-81
2023/04/13 12:23:16;;;;;;;3.00;1.20;;;;;;;;;;12922099;23;20372;-81
2023/04/13 12:28:37;;;;;;;3.53;1.37;;;;;;;;;;12926351;22;20063;-83
2023/04/13 12:33:39;;;;;;;1.05;0.80;;;;;;;;;;12942502;22;20023;-80
2023/04/13 12:38:41;;;;;;;2.88;0.90;;;;;;;;;;12945446;22;20533;-80
2023/04/13 12:43:41;;;;;;;2.28;0.98;;;;;;;;;;12930379;22;20601;-80
2023/04/13 12:48:42;;;;;;;1.98;0.95;;;;;;;;;;12918409;23;20067;-82
2023/04/13 12:53:43;;;;;;;1.77;1.00;;;;;;;;;;12921160;23;20016;-80
2023/04/13 12:58:43;;;;;;;3.40;1.20;;;;;;;;;;12935515;22;20054;-85
2023/04/13 13:03:46;;;;;;;2.85;1.10;;;;;;;;;;12931470;23;20015;-80
2023/04/13 13:08:46;;;;;;;5.90;1.50;;;;;;;;;;12921940;22;20012;-83
2023/04/13 13:13:47;;;;;;;3.63;1.40;;;;;;;;;;12907938;22;20008;-81
2023/04/13 13:18:48;;;;;;;2.70;1.50;;;;;;;;;;12911041;22;20031;-81
2023/04/13 13:23:50;;;;;;;3.38;1.42;;;;;;;;;;12916722;23;20012;-79
2023/04/13 13:28:51;;;;;;;3.55;1.08;;;;;;;;;;12974346;22;20007;-81
2023/04/13 13:33:53;;;;;;;2.75;1.08;;;;;;;;;;12951178;22;20526;-82
2023/04/13 13:38:54;;;;;;;2.88;1.08;;;;;;;;;;12907432;22;20119;-84
2023/04/13 13:43:54;;;;;;;2.05;0.90;;;;;;;;;;12905131;23;20095;-81
2023/04/13 13:48:57;;;;;;;2.60;0.95;;;;;;;;;;12904668;22;20079;-83
2023/04/13 13:54:30;;;;;;;2.15;1.20;;;;;;;;;;12804835;22;20012;-80
2023/04/13 13:59:31;;;;;;;1.13;1.00;;;;;;;;;;12903355;23;20878;-80
2023/04/13 14:04:33;;;;;;;4.18;1.52;;;;;;;;;;12901306;22;20083;-77
2023/04/13 14:09:36;;;;;;;1.85;1.00;;;;;;;;;;12902579;22;20004;-77
2023/04/13 14:14:36;;;;;;;2.00;1.10;;;;;;;;;;12899776;23;20012;-77
2023/04/13 14:19:37;;;;;;;3.85;1.80;;;;;;;;;;12901687;23;20027;-79
2023/04/13 14:24:40;;;;;;;3.58;2.30;;;;;;;;;;12899445;23;20015;-78
2023/04/13 14:29:41;;;;;;;2.25;1.20;;;;;;;;;;12904304;23;20397;-76
2023/04/13 14:34:46;;;;;;;1.75;1.27;;;;;;;;;;12902985;23;20024;-80
2023/04/13 14:39:49;;;;;;;2.08;1.30;;;;;;;;;;12911005;22;20016;-78
2023/04/13 14:44:50;;;;;;;2.15;0.98;;;;;;;;;;12943151;23;20012;-81
2023/04/13 14:49:52;;;;;;;2.95;1.00;;;;;;;;;;12944993;22;20016;-81
2023/04/13 14:54:56;;;;;;;2.22;0.73;;;;;;;;;;12919118;23;20016;-79
2023/04/13 14:59:59;;;;;;;1.42;0.75;;;;;;;;;;12927629;22;20020;-80
2023/04/13 15:05:00;;;;;;;2.63;1.00;;;;;;;;;;12934352;22;20016;-81
2023/04/13 15:10:10;;;;;;;2.35;1.30;;;;;;;;;;12970275;22;20001;-86
2023/04/13 15:15:11;;;;;;;3.20;1.15;;;;;;;;;;12978554;22;20020;-80
2023/04/13 15:20:20;;;;;;;10.48;5.57;;;;;;;;;;12916657;22;20054;-81
2023/04/13 15:25:24;;;;;;;2.38;1.45;;;;;;;;;;12901468;23;20012;-81
2023/04/13 15:30:35;;;;;;;4.25;1.95;;;;;;;;;;12905970;22;20313;-81
2023/04/13 15:35:37;;;;;;;2.47;1.10;;;;;;;;;;12909060;23;20036;-80
2023/04/13 15:40:42;;;;;;;1.27;1.13;;;;;;;;;;12932308;22;20080;-84
2023/04/13 15:45:45;;;;;;;2.38;1.60;;;;;;;;;;12914282;23;20045;-86
2023/04/13 15:50:57;;;;;;;3.30;1.20;;;;;;;;;;12925258;23;20088;-85
2023/04/13 15:55:59;;;;;;;3.38;1.75;;;;;;;;;;12917148;23;20020;-86
2023/04/13 16:01:08;;;;;;;2.85;1.90;;;;;;;;;;12920775;23;20042;-86
2023/04/13 16:06:23;;;;;;;3.97;1.75;;;;;;;;;;12914620;22;20027;-83
2023/04/13 16:11:26;;;;;;;5.05;1.27;;;;;;;;;;12905482;22;20020;-81
2023/04/13 16:16:52;;;;;;;2.95;1.35;;;;;;;;;;12908064;22;20067;-82
2023/04/13 16:21:56;;;;;;;2.45;1.60;;;;;;;;;;12903500;22;20047;-83
2023/04/13 16:26:57;;;;;;;2.58;1.23;;;;;;;;;;12891391;23;20035;-78
2023/04/13 16:31:57;;;;;;;2.70;1.40;;;;;;;;;;12897429;23;20012;-80
2023/04/13 16:37:00;;;;;;;3.10;1.77;;;;;;;;;;12905116;23;20024;-80
2023/04/13 16:42:01;;;;;;;3.53;1.70;;;;;;;;;;12900275;22;20022;-84
2023/04/13 16:47:01;;;;;;;2.77;1.70;;;;;;;;;;12900630;23;20019;-83
2023/04/13 16:52:02;;;;;;;2.05;1.50;;;;;;;;;;12907239;23;20251;-79
2023/04/13 16:57:03;;;;;;;3.65;1.70;;;;;;;;;;12926578;23;20162;-83
2023/04/13 17:02:03;;;;;;;2.33;1.60;;;;;;;;;;12938750;22;20008;-81
2023/04/13 17:07:04;;;;;;;3.25;1.45;;;;;;;;;;12943435;22;20012;-83
2023/04/13 17:12:05;;;;;;;2.00;1.42;;;;;;;;;;12930777;23;20032;-83
2023/04/13 17:17:07;;;;;;;4.10;1.90;;;;;;;;;;12966824;22;20023;-83
2023/04/13 17:22:07;;;;;;;2.95;1.98;;;;;;;;;;12975886;22;20024;-82
2023/04/13 17:27:09;;;;;;;3.78;2.22;;;;;;;;;;12959303;22;20015;-81
2023/04/13 17:32:12;;;;;;;2.17;1.48;;;;;;;;;;12907367;22;20016;-80
2023/04/13 17:37:14;;;;;;;3.88;1.80;;;;;;;;;;12906766;22;20016;-82
2023/04/13 17:42:17;;;;;;;2.73;1.97;;;;;;;;;;12908989;22;20008;-86
2023/04/13 17:47:18;;;;;;;4.17;2.30;;;;;;;;;;12910118;23;20081;-81
2023/04/13 17:52:20;;;;;;;3.30;1.70;;;;;;;;;;12933267;23;20467;-80
2023/04/13 17:57:23;;;;;;;2.80;1.20;;;;;;;;;;12936269;23;20030;-81
2023/04/13 18:02:24;;;;;;;3.65;1.52;;;;;;;;;;12943547;23;20012;-82
2023/04/13 18:07:27;;;;;;;2.42;1.60;;;;;;;;;;12937066;22;20030;-81
2023/04/13 18:12:27;;;;;;;2.60;1.50;;;;;;;;;;12967568;22;20059;-82
2023/04/13 18:17:35;;;;;;;2.30;1.52;;;;;;;;;;12951433;22;20026;-79
2023/04/13 18:22:54;;;;;;;3.75;2.03;;;;;;;;;;12978642;22;19996;-82
2023/04/13 18:27:57;;;;;;;3.60;1.65;;;;;;;;;;12957049;22;20051;-79
2023/04/13 18:33:08;;;;;;;3.80;2.30;;;;;;;;;;12926496;22;20848;-79
2023/04/13 18:43:14;;;;;;;2.67;2.00;;;;;;;;;;12968457;22;20069;-80
2023/04/13 18:48:17;;;;;;;3.20;2.72;;;;;;;;;;12943502;22;20046;-81
2023/04/13 18:53:17;;;;;;;3.90;2.97;;;;;;;;;;12945619;22;20040;-78
2023/04/13 18:58:27;;;;;;;4.00;2.47;;;;;;;;;;12972965;22;20023;-82
2023/04/13 19:03:30;;;;;;;6.13;2.85;;;;;;;;;;12942958;22;20032;-80
2023/04/13 19:08:34;;;;;;;5.25;3.88;;;;;;;;;;12935253;22;20011;-80
2023/04/13 19:14:07;;;;;;;6.55;3.15;;;;;;;;;;12966378;22;20015;-81
2023/04/13 19:19:27;;;;;;;4.35;2.38;;;;;;;;;;12958575;22;20027;-84
2023/04/13 19:24:36;;;;;;;4.47;2.40;;;;;;;;;;13037147;22;20027;-81
2023/04/13 19:29:45;;;;;;;3.10;2.50;;;;;;;;;;13012748;22;20004;-79
2023/04/13 19:34:47;;;;;;;2.92;2.63;;;;;;;;;;13024960;22;20020;-81
2023/04/13 19:39:47;;;;;;;4.03;2.80;;;;;;;;;;12948990;22;20022;-79
2023/04/13 19:44:54;;;;;;;5.00;3.13;;;;;;;;;;12965124;22;20035;-80
2023/04/13 19:49:55;;;;;;;3.88;2.38;;;;;;;;;;12937676;22;20754;-79
2023/04/13 19:54:56;;;;;;;2.55;1.65;;;;;;;;;;12957844;22;20020;-78
2023/04/13 19:59:57;;;;;;;2.03;1.30;;;;;;;;;;12908078;22;20337;-79
2023/04/13 20:04:58;;;;;;;1.73;1.50;;;;;;;;;;12975036;22;20455;-81
2023/04/13 20:09:59;;;;;;;2.72;1.70;;;;;;;;;;12937082;22;20018;-79
2023/04/13 20:15:02;;;;;;;2.42;1.50;;;;;;;;;;12964642;22;20389;-82
2023/04/13 20:20:05;;;;;;;2.90;1.90;;;;;;;;;;12964667;22;20619;-80
2023/04/13 20:25:07;;;;;;;1.75;1.40;;;;;;;;;;12915156;22;20069;-80
2023/04/13 20:30:09;;;;;;;3.10;1.40;;;;;;;;;;12940001;22;20095;-80
2023/04/13 20:35:13;;;;;;;3.92;2.10;;;;;;;;;;12942944;22;20047;-78
2023/04/13 20:40:16;;;;;;;2.15;1.55;;;;;;;;;;12974704;22;20043;-82
2023/04/13 20:45:19;;;;;;;2.67;1.60;;;;;;;;;;12998745;22;20352;-83
2023/04/13 20:50:21;;;;;;;2.03;1.63;;;;;;;;;;12979461;22;20463;-84
2023/04/13 20:55:23;;;;;;;2.07;1.37;;;;;;;;;;12968036;22;20092;-83
2023/04/13 21:00:26;;;;;;;1.90;1.70;;;;;;;;;;12943441;22;20015;-85
2023/04/13 21:05:26;;;;;;;3.88;1.73;;;;;;;;;;12935898;22;20082;-82
2023/04/13 21:10:30;;;;;;;3.10;1.80;;;;;;;;;;12945420;22;20506;-82
2023/04/13 21:15:32;;;;;;;13.25;8.77;;;;;;;;;;12975171;22;20031;-83
2023/04/13 21:20:33;;;;;;;3.00;2.17;;;;;;;;;;12932650;22;20399;-89
2023/04/13 21:25:34;;;;;;;2.45;1.70;;;;;;;;;;13000385;22;20076;-84
2023/04/13 22:01:23;;;;;;;3.10;2.30;;;;;;;;;;12939639;22;20024;-85
2023/04/13 22:06:26;;;;;;;4.85;2.63;;;;;;;;;;12977522;22;19992;-88
2023/04/13 22:11:26;;;;;;;3.13;1.98;;;;;;;;;;12984217;22;19989;-86
2023/04/13 22:16:28;;;;;;;2.25;1.98;;;;;;;;;;12947534;22;20171;-83
2023/04/13 22:21:31;;;;;;;3.30;1.88;;;;;;;;;;12922810;22;20015;-85
2023/04/13 22:32:05;;;;;;;3.03;2.10;;;;;;;;;;12887273;22;20107;-80
2023/04/13 22:37:09;;;;;;;3.08;2.05;;;;;;;;;;12911694;22;20026;-81
2023/04/13 22:42:09;;;;;;;2.10;1.80;;;;;;;;;;12963474;22;20098;-80
2023/04/13 22:47:09;;;;;;;2.67;1.50;;;;;;;;;;12936010;22;20504;-81
2023/04/13 22:52:13;;;;;;;2.60;1.80;;;;;;;;;;12963039;22;20149;-78
2023/04/13 22:57:30;;;;;;;2.70;1.70;;;;;;;;;;12959912;22;20066;-77
2023/04/13 23:02:35;;;;;;;2.45;1.63;;;;;;;;;;12961148;22;20024;-81
2023/04/13 23:07:36;;;;;;;2.00;1.77;;;;;;;;;;12963087;22;20081;-79
2023/04/13 23:12:40;;;;;;;1.95;1.80;;;;;;;;;;12911725;22;20023;-80
2023/04/13 23:18:01;;;;;;;2.63;1.63;;;;;;;;;;10449896;27;4157059;-82
2023/04/13 23:23:02;;;;;;;1.77;1.60;;;;;;;;;;10541391;28;20051;-78
2023/04/13 23:28:03;;;;;;;2.00;1.80;;;;;;;;;;10544888;28;20048;-79
2023/04/13 23:33:04;;;;;;;2.75;1.70;;;;;;;;;;10551086;28;20042;-78
2023/04/13 23:38:05;;;;;;;1.67;1.38;;;;;;;;;;10560268;28;20063;-81
2023/04/13 23:43:08;;;;;;;2.60;1.50;;;;;;;;;;10548319;28;20434;-79
2023/04/13 23:48:10;;;;;;;3.28;1.42;;;;;;;;;;10583874;28;20064;-79
2023/04/13 23:53:14;;;;;;;2.15;1.67;;;;;;;;;;10541916;28;20060;-81
2023/04/13 23:58:19;;;;;;;2.42;1.48;;;;;;;;;;10545401;28;20040;-81
